Natural Bridge Station, VA (24579)

4:49 PM EDT on August 27, 2015 (GMT -0400)
Hensley Hollow Rd. | | Change Station
CLOSE
Current Station
Personal Weather Station
Location: Big Island, VA
Elevation: 971 ft
Nearby Weather Stations

Elev 971 ft 37.54 °N, 79.40 °W | Updated 11 seconds ago

Partly Cloudy
Partly Cloudy
79.2 °F
Feels Like 80 °F
N
0.0
Wind Variable Wind from WNW
Gusts 0.0 mph

Today
High -- | Low -- °F
--% Chance of Precip.
Yesterday
High -- | Low -- °F
Precip. -- in
6:43 AM 7:54 PM
Waxing Gibbous, 95% visible
Pressure 30.09 in
Visibility 10.0 miles
Clouds Scattered Clouds 6000 ft
Heat Index 80 °F
Dew Point 58 °F
Humidity 49%
Rainfall 0.00 in
Snow Depth Not available.
UV 5 out of 12
Pollen 8.40 out of 12
Air Quality Not available.
Flu Activity Not available.
METAR KLYH 271954Z 00000KT 10SM SCT060 24/13 A3011 RMK AO2 SLP189 T02440133
Pressure 30.09 in
Visibility 10.0 miles
Clouds Scattered Clouds 6000 ft
Heat Index 80 °F
Dew Point 58 °F
Humidity 49%
Rainfall 0.00 in
Snow Depth Not available.
UV 5 out of 12
Pollen 8.40 out of 12
Air Quality Not available.
Flu Activity Not available.
METAR KLYH 271954Z 00000KT 10SM SCT060 24/13 A3011 RMK AO2 SLP189 T02440133

10-Day Weather Forecast

×

Almanac

Astronomy

Aug. 27, 2015 Rise Set
Actual Time
Civil Twilight
Nautical Twilight
Astronomical Twilight
Moon
Length of Visible Light
Length of Day
Tomorrow will be .
, % of the Moon is Illuminated

Today's Extremes

State Highs State Lows

Community

WunderPhotos

Upload Photos

1,850,212 photos uploaded!

WunderBlogs® & News

Nearby

Air Quality

  Air Quality AQ Index Pollutant
Not available.

Snow Depth

Station Depth Elevation

Earthquake Activity

City Distance Mag. Time & Date
Minimum magnitude displayed is 2.5.

Coastal Water Temperatures

Place Temperature

Stations

Nearby Weather Stations

Station Location Temp. Windchill Dew Point Humidity Wind Precip. Elev Updated Type